Libertyville, Alabama
Current Conditions -  °F | °C
As of 4:56 PM on Saturday 20 Dec 2014 (Local Time) from K79J Reporting Station
Overcast Overcast  
Wind Chill: 57°   Ceiling: 1400
Heat Index: 57°   Visibility: 10mi
Dew Point: 48°   Wind: 6mph
Humidity: 72%   Direction: 30°NNE
Pressure: 30.12"   Gusts: NA
Location:  31.1836°N, 86.5372°W
Report Text: K79J 202256Z AUTO 03005KT 10SM BKN014 OVC100 14/09 A3012 RMK AO2 SLP199 T01390089
Loading
Personal Weather Stations






























Interactive Weather Map New forecast layout! Learn more

10-Day Weather Forecast

Advertisements
Track Severe Weather on mobile